createdAt,value
2023-04-11T00:01:32.382Z,8.60
2023-04-11T00:04:02.097Z,8.60
2023-04-11T00:06:31.691Z,8.50
2023-04-11T00:09:00.913Z,8.70
2023-04-11T00:11:29.563Z,8.70
2023-04-11T00:13:58.822Z,8.70
2023-04-11T00:16:28.993Z,8.70
2023-04-11T00:18:57.628Z,8.70
2023-04-11T00:21:26.438Z,8.70
2023-04-11T00:23:55.343Z,8.60
2023-04-11T00:26:23.967Z,8.50
2023-04-11T00:28:52.836Z,8.50
2023-04-11T00:31:21.615Z,8.60
2023-04-11T00:33:52.027Z,8.60
2023-04-11T00:36:21.053Z,8.60
2023-04-11T00:38:49.790Z,8.60
2023-04-11T00:41:19.104Z,8.60
2023-04-11T00:43:48.823Z,8.60
2023-04-11T00:46:18.149Z,8.60
2023-04-11T00:48:53.041Z,8.70
2023-04-11T00:51:22.543Z,8.60
2023-04-11T00:53:52.056Z,8.70
2023-04-11T00:56:21.293Z,8.90
2023-04-11T00:58:49.842Z,8.90
2023-04-11T01:01:20.125Z,8.80
2023-04-11T01:03:48.969Z,8.80
2023-04-11T01:06:20.984Z,8.80
2023-04-11T01:08:50.547Z,8.80
2023-04-11T01:11:20.355Z,8.90
2023-04-11T01:13:49.095Z,8.90
2023-04-11T01:16:21.617Z,9.10
2023-04-11T01:18:50.385Z,9.10
2023-04-11T01:21:20.929Z,9.00
2023-04-11T01:23:54.285Z,9.10
2023-04-11T01:26:23.371Z,9.10
2023-04-11T01:28:53.225Z,9.20
2023-04-11T01:31:24.247Z,9.20
2023-04-11T01:33:52.722Z,9.20
2023-04-11T01:36:21.188Z,9.10
2023-04-11T01:38:49.439Z,9.00
2023-04-11T01:41:21.079Z,9.00
2023-04-11T01:43:49.672Z,9.00
2023-04-11T01:46:19.560Z,8.90
2023-04-11T01:48:48.096Z,8.90
2023-04-11T01:51:16.581Z,8.90
2023-04-11T01:53:47.460Z,9.10
2023-04-11T01:56:17.907Z,9.10
2023-04-11T01:58:49.740Z,9.20
2023-04-11T02:01:19.514Z,9.20
2023-04-11T02:03:48.376Z,9.10
2023-04-11T02:06:18.060Z,9.00
2023-04-11T02:08:46.624Z,9.00
2023-04-11T02:11:15.343Z,9.00
2023-04-11T02:13:44.147Z,9.10
2023-04-11T02:16:15.967Z,9.10
2023-04-11T02:18:45.980Z,9.60
2023-04-11T02:21:14.498Z,10.20
2023-04-11T02:23:46.174Z,10.40
2023-04-11T02:26:14.459Z,10.30
2023-04-11T02:28:45.389Z,10.20
2023-04-11T02:31:15.711Z,10.20
2023-04-11T02:33:45.859Z,10.20
2023-04-11T02:36:14.515Z,10.10
2023-04-11T02:38:43.950Z,10.10
2023-04-11T02:41:12.412Z,10.00
2023-04-11T02:43:43.708Z,10.10
2023-04-11T02:46:13.106Z,10.10
2023-04-11T02:48:46.846Z,10.10
2023-04-11T02:51:15.549Z,10.00
2023-04-11T02:53:48.835Z,10.10
2023-04-11T02:56:21.029Z,10.10
2023-04-11T02:58:53.607Z,10.10
2023-04-11T03:01:25.794Z,10.20
2023-04-11T03:03:58.702Z,10.20
2023-04-11T03:06:34.734Z,10.30
2023-04-11T03:09:04.231Z,10.50
2023-04-11T03:11:36.768Z,10.70
2023-04-11T03:14:05.977Z,10.70
2023-04-11T03:16:34.798Z,10.50
2023-04-11T03:19:06.273Z,10.40
2023-04-11T03:21:34.580Z,10.40
2023-04-11T03:24:04.144Z,10.50
2023-04-11T03:26:32.709Z,10.40
2023-04-11T03:29:09.597Z,10.30
2023-04-11T03:31:50.112Z,10.30
2023-04-11T03:34:22.533Z,10.40
2023-04-11T03:36:52.512Z,10.50
2023-04-11T03:39:23.275Z,11.10
2023-04-11T03:41:52.633Z,11.30
2023-04-11T03:44:21.220Z,10.90
2023-04-11T03:46:54.001Z,11.20
2023-04-11T03:49:24.697Z,11.10
2023-04-11T03:51:57.380Z,11.00
2023-04-11T03:54:27.929Z,11.00
2023-04-11T03:56:57.270Z,10.90
2023-04-11T03:59:28.148Z,11.00
2023-04-11T04:02:16.125Z,11.00
2023-04-11T04:04:55.072Z,11.00
2023-04-11T04:07:32.104Z,11.30
2023-04-11T04:10:18.484Z,11.20
2023-04-11T04:12:53.117Z,11.90
2023-04-11T04:15:24.826Z,11.50
2023-04-11T04:17:54.073Z,11.30
2023-04-11T04:20:40.789Z,11.30
2023-04-11T04:23:14.462Z,11.30
2023-04-11T04:26:02.521Z,11.30
2023-04-11T04:28:33.940Z,11.20
2023-04-11T04:31:05.550Z,11.20
2023-04-11T04:33:43.011Z,11.10
2023-04-11T04:36:22.294Z,10.90
2023-04-11T04:38:52.626Z,10.90
2023-04-11T04:41:24.095Z,10.80
2023-04-11T04:44:01.188Z,10.60
2023-04-11T04:46:38.444Z,10.60
2023-04-11T04:49:09.744Z,10.60
2023-04-11T04:51:41.174Z,10.60
2023-04-11T04:54:10.742Z,10.60
2023-04-11T04:56:39.737Z,10.90
2023-04-11T04:59:15.024Z,11.70
2023-04-11T05:01:51.571Z,12.00
2023-04-11T05:04:26.213Z,11.70
2023-04-11T05:07:00.391Z,11.30
2023-04-11T05:09:30.904Z,11.30
2023-04-11T05:12:10.713Z,11.20
2023-04-11T05:14:41.873Z,11.40
2023-04-11T05:17:10.544Z,11.50
2023-04-11T05:19:40.416Z,11.70
2023-04-11T05:22:10.615Z,11.80
2023-04-11T05:24:43.619Z,12.00
2023-04-11T05:27:14.555Z,11.90
2023-04-11T05:29:44.680Z,12.10
2023-04-11T05:32:14.801Z,12.20
2023-04-11T05:34:59.073Z,11.80
2023-04-11T05:37:55.486Z,12.00
2023-04-11T05:40:23.716Z,11.50
2023-04-11T05:42:52.503Z,11.40
2023-04-11T05:45:20.942Z,11.70
2023-04-11T05:47:50.147Z,11.70
2023-04-11T05:50:19.212Z,11.70
2023-04-11T05:52:48.656Z,11.50
2023-04-11T05:55:20.274Z,11.50
2023-04-11T05:57:49.670Z,11.60
2023-04-11T06:00:21.071Z,11.60
2023-04-11T06:02:49.945Z,11.50
2023-04-11T06:05:21.210Z,11.60
2023-04-11T06:07:51.219Z,11.50
2023-04-11T06:10:21.444Z,11.30
2023-04-11T06:12:53.547Z,11.30
2023-04-11T06:15:22.022Z,11.10
2023-04-11T06:17:50.135Z,11.00
2023-04-11T06:20:18.500Z,10.90
2023-04-11T06:22:46.985Z,10.90
2023-04-11T06:25:15.635Z,11.00
2023-04-11T06:27:45.404Z,10.90
2023-04-11T06:30:14.347Z,10.90
2023-04-11T06:32:42.493Z,11.00
2023-04-11T06:35:11.221Z,10.90
2023-04-11T06:37:39.298Z,10.90
2023-04-11T06:40:08.986Z,10.90
2023-04-11T06:42:38.884Z,10.90
2023-04-11T06:45:10.152Z,10.80
2023-04-11T06:47:38.339Z,10.80
2023-04-11T06:50:07.460Z,10.80
2023-04-11T06:52:35.507Z,10.80
2023-04-11T06:55:03.588Z,10.70
2023-04-11T06:57:32.087Z,10.70
2023-04-11T07:00:00.080Z,10.60
2023-04-11T07:02:29.666Z,10.40
2023-04-11T07:04:57.801Z,10.40
2023-04-11T07:07:26.025Z,9.90
2023-04-11T07:09:54.041Z,9.60
2023-04-11T07:12:22.197Z,9.60
2023-04-11T07:14:50.391Z,9.50
2023-04-11T07:17:18.472Z,9.40
2023-04-11T07:19:47.847Z,9.40
2023-04-11T07:22:16.179Z,9.50
2023-04-11T07:24:46.470Z,9.50
2023-04-11T07:27:15.667Z,9.40
2023-04-11T07:29:43.685Z,9.50
2023-04-11T07:32:11.658Z,9.40
2023-04-11T07:34:39.679Z,9.40
2023-04-11T07:37:09.132Z,9.30
2023-04-11T07:39:37.154Z,9.10
2023-04-11T07:42:05.362Z,9.00
2023-04-11T07:44:33.412Z,9.00
2023-04-11T07:47:01.469Z,9.00
2023-04-11T07:49:29.840Z,8.90
2023-04-11T07:51:57.794Z,8.90
2023-04-11T07:54:28.632Z,8.90
2023-04-11T07:56:56.885Z,8.80
2023-04-11T07:59:25.028Z,8.80
2023-04-11T08:02:00.958Z,8.70
2023-04-11T08:04:33.391Z,8.60
2023-04-11T08:07:01.660Z,8.50
2023-04-11T08:09:31.266Z,8.50
2023-04-11T08:11:59.336Z,8.50
2023-04-11T08:14:27.348Z,8.50
2023-04-11T08:16:55.542Z,8.50
2023-04-11T08:19:23.658Z,8.50
2023-04-11T08:21:52.719Z,8.50
2023-04-11T08:24:21.322Z,8.50
2023-04-11T08:26:50.698Z,8.40
2023-04-11T08:29:18.770Z,8.40
2023-04-11T08:31:46.891Z,8.40
2023-04-11T08:34:14.969Z,8.30
2023-04-11T08:36:42.971Z,8.20
2023-04-11T08:39:11.909Z,8.20
2023-04-11T08:41:40.079Z,8.10
2023-04-11T08:44:13.131Z,8.20
2023-04-11T08:46:43.279Z,8.30
2023-04-11T08:49:11.544Z,8.30
2023-04-11T08:51:43.182Z,8.30
2023-04-11T08:54:11.388Z,8.40
2023-04-11T08:56:41.893Z,8.40
2023-04-11T08:59:09.905Z,8.40
2023-04-11T09:01:40.783Z,8.40
2023-04-11T09:04:10.611Z,8.40
2023-04-11T09:06:40.184Z,8.40
2023-04-11T09:09:09.659Z,8.40
2023-04-11T09:11:54.429Z,8.40
2023-04-11T09:14:25.932Z,8.40
2023-04-11T09:17:00.857Z,8.50
2023-04-11T09:19:30.562Z,8.50
2023-04-11T09:22:00.474Z,8.50
2023-04-11T09:24:29.616Z,8.50
2023-04-11T09:27:09.071Z,8.50
2023-04-11T09:29:39.091Z,8.60
2023-04-11T09:32:08.808Z,8.60
2023-04-11T09:34:39.487Z,8.50
2023-04-11T09:37:08.655Z,8.60
2023-04-11T09:39:37.040Z,8.50
2023-04-11T09:42:25.138Z,8.60
2023-04-11T09:44:54.176Z,8.60
2023-04-11T09:47:23.666Z,8.50
2023-04-11T09:49:52.757Z,8.50
2023-04-11T09:52:21.742Z,8.50
2023-04-11T09:54:51.904Z,8.40
2023-04-11T09:57:22.541Z,8.40
2023-04-11T09:59:53.641Z,8.40
2023-04-11T10:02:23.191Z,8.40
2023-04-11T10:04:54.677Z,8.40
2023-04-11T10:07:23.433Z,8.40
2023-04-11T10:09:51.654Z,8.50
2023-04-11T10:12:31.809Z,8.40
2023-04-11T10:15:08.237Z,8.50
2023-04-11T10:17:38.007Z,8.60
2023-04-11T10:20:40.361Z,8.60
2023-04-11T10:23:08.422Z,8.50
2023-04-11T10:25:53.417Z,8.50
2023-04-11T10:28:35.666Z,8.50
2023-04-11T10:31:05.308Z,8.40
2023-04-11T10:33:36.037Z,8.50
2023-04-11T10:36:06.298Z,8.40
2023-04-11T10:38:51.107Z,8.50
2023-04-11T10:41:31.391Z,8.50
2023-04-11T10:44:22.499Z,8.50
2023-04-11T10:46:53.640Z,8.50
2023-04-11T10:49:39.928Z,8.50
2023-04-11T10:52:22.569Z,8.40
2023-04-11T10:54:52.120Z,8.50
2023-04-11T10:57:20.667Z,8.70
2023-04-11T10:59:58.595Z,9.00
2023-04-11T11:02:39.091Z,9.20
2023-04-11T11:05:23.297Z,9.20
2023-04-11T11:07:53.124Z,9.40
2023-04-11T11:10:38.299Z,9.40
2023-04-11T11:13:06.544Z,9.50
2023-04-11T11:15:37.804Z,9.60
2023-04-11T11:18:08.348Z,9.50
2023-04-11T11:20:38.604Z,9.60
2023-04-11T11:23:08.072Z,9.70
2023-04-11T11:25:36.776Z,10.00
2023-04-11T11:28:07.293Z,10.20
2023-04-11T11:30:36.613Z,10.10
2023-04-11T11:33:26.749Z,9.60
2023-04-11T11:35:58.537Z,9.10
2023-04-11T11:38:28.803Z,9.20
2023-04-11T11:40:57.175Z,9.30
2023-04-11T11:43:27.352Z,9.40
2023-04-11T11:46:14.245Z,9.40
2023-04-11T11:48:43.797Z,9.40
2023-04-11T11:51:14.134Z,9.40
2023-04-11T11:53:42.691Z,9.40
2023-04-11T11:56:14.940Z,9.80
2023-04-11T11:58:46.417Z,10.00
2023-04-11T12:01:16.784Z,10.10
2023-04-11T12:03:45.405Z,9.90
2023-04-11T12:06:16.120Z,9.90
2023-04-11T12:08:50.137Z,9.90
2023-04-11T12:11:18.556Z,9.90
2023-04-11T12:13:46.774Z,9.60
2023-04-11T12:16:15.980Z,9.90
2023-04-11T12:18:45.189Z,9.90
2023-04-11T12:21:14.528Z,9.90
2023-04-11T12:23:42.576Z,9.70
2023-04-11T12:26:10.553Z,9.80
2023-04-11T12:28:38.641Z,9.90
2023-04-11T12:31:06.879Z,10.20
2023-04-11T12:33:35.240Z,10.10
2023-04-11T12:36:03.560Z,10.90
2023-04-11T12:38:34.136Z,10.60
2023-04-11T12:41:20.319Z,10.40
2023-04-11T12:43:50.310Z,10.80
2023-04-11T12:46:19.288Z,10.60
2023-04-11T12:48:47.505Z,10.60
2023-04-11T12:51:15.512Z,10.80
2023-04-11T12:53:45.012Z,11.20
2023-04-11T12:56:13.005Z,11.30
2023-04-11T12:58:41.223Z,11.20
2023-04-11T13:01:09.442Z,11.10
2023-04-11T13:03:38.430Z,10.90
2023-04-11T13:06:07.500Z,10.80
2023-04-11T13:08:35.737Z,11.10
2023-04-11T13:11:05.222Z,11.00
2023-04-11T13:13:33.264Z,10.80
2023-04-11T13:16:01.614Z,10.90
2023-04-11T13:18:29.762Z,11.30
2023-04-11T13:20:57.869Z,11.00
2023-04-11T13:23:25.963Z,11.40
2023-04-11T13:25:54.204Z,11.70
2023-04-11T13:28:23.710Z,11.20
2023-04-11T13:30:52.117Z,11.00
2023-04-11T13:33:20.360Z,11.10
2023-04-11T13:35:48.412Z,11.20
2023-04-11T13:38:16.443Z,11.30
2023-04-11T13:40:44.597Z,11.50
2023-04-11T13:43:12.631Z,11.20
2023-04-11T13:45:42.158Z,10.70
2023-04-11T13:48:10.449Z,10.80
2023-04-11T13:50:39.353Z,11.00
2023-04-11T13:53:07.610Z,11.20
2023-04-11T13:55:35.713Z,11.30
2023-04-11T13:58:03.828Z,11.30
2023-04-11T14:00:31.894Z,11.50
2023-04-11T14:03:01.377Z,11.60
2023-04-11T14:05:32.472Z,11.30
2023-04-11T14:08:00.566Z,11.00
2023-04-11T14:10:28.628Z,10.70
2023-04-11T14:12:56.658Z,10.80
2023-04-11T14:15:25.023Z,10.50
2023-04-11T14:17:53.144Z,10.50
2023-04-11T14:20:22.734Z,10.50
2023-04-11T14:22:50.913Z,10.60
2023-04-11T14:25:19.274Z,10.70
2023-04-11T14:27:47.278Z,10.40
2023-04-11T14:30:15.541Z,10.20
2023-04-11T14:32:43.684Z,10.60
2023-04-11T14:35:11.709Z,10.50
2023-04-11T14:37:41.103Z,10.30
2023-04-11T14:40:11.137Z,10.10
2023-04-11T14:42:39.599Z,9.80
2023-04-11T14:45:08.877Z,9.90
2023-04-11T14:47:37.214Z,10.00
2023-04-11T14:50:05.756Z,9.90
2023-04-11T14:52:33.902Z,10.20
2023-04-11T14:55:03.583Z,10.20
2023-04-11T14:57:45.662Z,11.30
2023-04-11T15:00:19.090Z,11.60
2023-04-11T15:02:48.297Z,11.60
2023-04-11T15:05:17.970Z,11.50
2023-04-11T15:07:47.984Z,11.70
2023-04-11T15:10:19.049Z,11.40
2023-04-11T15:12:47.369Z,11.30
2023-04-11T15:15:16.284Z,11.20
2023-04-11T15:17:46.605Z,11.20
2023-04-11T15:20:15.470Z,10.80
2023-04-11T15:22:45.494Z,10.80
2023-04-11T15:25:15.053Z,10.50
2023-04-11T15:27:44.719Z,10.20
2023-04-11T15:30:13.859Z,10.00
2023-04-11T15:32:44.089Z,9.80
2023-04-11T15:35:12.809Z,9.90
2023-04-11T15:37:41.066Z,10.70
2023-04-11T15:40:11.972Z,10.60
2023-04-11T15:42:40.733Z,10.90
2023-04-11T15:45:11.183Z,11.70
2023-04-11T15:47:39.627Z,11.70
2023-04-11T15:50:08.430Z,11.30
2023-04-11T15:52:36.536Z,11.10
2023-04-11T15:55:05.078Z,10.50
2023-04-11T15:57:33.243Z,10.40
2023-04-11T16:00:01.338Z,10.20
2023-04-11T16:02:39.196Z,10.30
2023-04-11T16:05:08.569Z,10.10
2023-04-11T16:07:36.732Z,10.10
2023-04-11T16:10:05.216Z,9.90
2023-04-11T16:12:33.267Z,10.10
2023-04-11T16:15:01.561Z,10.10
2023-04-11T16:17:29.650Z,10.30
2023-04-11T16:19:59.151Z,11.00
2023-04-11T16:22:27.352Z,11.40
2023-04-11T16:24:56.285Z,11.60
2023-04-11T16:27:24.875Z,11.60
2023-04-11T16:29:54.737Z,11.10
2023-04-11T16:32:23.216Z,11.60
2023-04-11T16:34:51.973Z,11.00
2023-04-11T16:37:21.366Z,10.70
2023-04-11T16:39:49.489Z,11.10
2023-04-11T16:42:17.641Z,10.90
2023-04-11T16:44:45.641Z,10.60
2023-04-11T16:47:13.669Z,10.50
2023-04-11T16:49:41.717Z,10.60
2023-04-11T16:52:09.721Z,10.50
2023-04-11T16:54:39.157Z,10.00
2023-04-11T16:57:07.230Z,9.60
2023-04-11T16:59:36.231Z,9.60
2023-04-11T17:02:04.311Z,9.40
2023-04-11T17:04:32.662Z,9.20
2023-04-11T17:07:00.895Z,9.20
2023-04-11T17:09:28.990Z,9.20
2023-04-11T17:11:58.474Z,9.10
2023-04-11T17:14:27.291Z,9.10
2023-04-11T17:16:55.482Z,9.00
2023-04-11T17:19:24.491Z,8.90
2023-04-11T17:21:53.582Z,8.90
2023-04-11T17:24:21.509Z,8.90
2023-04-11T17:26:49.578Z,9.00
2023-04-11T17:29:20.250Z,9.00
2023-04-11T17:31:48.902Z,9.10
2023-04-11T17:34:17.034Z,9.10
2023-04-11T17:36:45.946Z,9.00
2023-04-11T17:39:17.711Z,8.90
2023-04-11T17:41:46.198Z,8.80
2023-04-11T17:44:14.559Z,8.80
2023-04-11T17:46:44.873Z,8.70
2023-04-11T17:49:13.253Z,8.80
2023-04-11T17:51:48.851Z,8.60
2023-04-11T17:54:20.760Z,8.60
2023-04-11T17:56:48.748Z,8.40
2023-04-11T17:59:17.615Z,8.40
2023-04-11T18:01:47.350Z,8.40
2023-04-11T18:04:16.144Z,8.50
2023-04-11T18:06:46.044Z,8.30
2023-04-11T18:09:15.652Z,8.20
2023-04-11T18:11:44.048Z,8.10
2023-04-11T18:14:12.306Z,8.30
2023-04-11T18:16:40.792Z,8.10
2023-04-11T18:19:10.703Z,7.90
2023-04-11T18:21:40.100Z,7.90
2023-04-11T18:24:08.974Z,8.00
2023-04-11T18:26:37.055Z,7.80
2023-04-11T18:29:05.050Z,7.80
2023-04-11T18:31:35.208Z,8.00
2023-04-11T18:34:05.691Z,7.80
2023-04-11T18:36:36.345Z,7.90
2023-04-11T18:39:04.922Z,7.90
2023-04-11T18:41:33.004Z,7.80
2023-04-11T18:44:02.426Z,7.80
2023-04-11T18:46:31.203Z,7.90
2023-04-11T18:48:59.556Z,7.80
2023-04-11T18:51:27.590Z,7.80
2023-04-11T18:53:57.147Z,7.60
2023-04-11T18:56:26.674Z,7.40
2023-04-11T18:58:58.079Z,7.60
2023-04-11T19:01:32.763Z,7.60
2023-04-11T19:04:01.705Z,7.40
2023-04-11T19:06:30.120Z,7.30
2023-04-11T19:08:59.558Z,7.30
2023-04-11T19:11:27.545Z,7.20
2023-04-11T19:13:59.917Z,7.20
2023-04-11T19:16:28.298Z,7.10
2023-04-11T19:18:56.591Z,7.00
2023-04-11T19:21:24.799Z,7.10
2023-04-11T19:23:52.857Z,7.00
2023-04-11T19:26:22.654Z,7.00
2023-04-11T19:28:50.988Z,7.10
2023-04-11T19:31:19.077Z,7.00
2023-04-11T19:33:49.798Z,6.90
2023-04-11T19:36:17.885Z,6.70
2023-04-11T19:38:46.147Z,7.00
2023-04-11T19:41:15.335Z,6.80
2023-04-11T19:43:45.293Z,6.70
2023-04-11T19:46:13.697Z,6.80
2023-04-11T19:48:42.678Z,6.70
2023-04-11T19:51:12.344Z,6.50
2023-04-11T19:53:40.576Z,7.10
2023-04-11T19:56:10.904Z,6.70
2023-04-11T19:58:39.888Z,6.40
2023-04-11T20:01:09.737Z,6.30
2023-04-11T20:03:38.039Z,7.90
2023-04-11T20:06:06.560Z,6.10
2023-04-11T20:08:36.619Z,6.10
2023-04-11T20:11:05.597Z,6.10
2023-04-11T20:13:33.998Z,6.00
2023-04-11T20:16:04.724Z,6.00
2023-04-11T20:18:35.534Z,5.90
2023-04-11T20:21:06.179Z,5.90
2023-04-11T20:23:35.346Z,5.70
2023-04-11T20:26:03.388Z,5.70
2023-04-11T20:28:31.636Z,5.70
2023-04-11T20:30:59.924Z,5.60
2023-04-11T20:33:28.908Z,5.60
2023-04-11T20:35:58.564Z,5.50
2023-04-11T20:38:27.448Z,5.50
2023-04-11T20:40:55.672Z,5.40
2023-04-11T20:43:26.077Z,5.30
2023-04-11T20:45:55.826Z,5.30
2023-04-11T20:48:25.919Z,5.10
2023-04-11T20:50:56.008Z,5.00
2023-04-11T20:53:27.418Z,4.90
2023-04-11T20:55:56.235Z,4.90
2023-04-11T20:58:24.402Z,4.80
2023-04-11T21:00:52.547Z,4.80
2023-04-11T21:03:21.187Z,4.70
2023-04-11T21:05:50.044Z,4.60
2023-04-11T21:08:18.582Z,4.50
2023-04-11T21:10:48.116Z,4.50
2023-04-11T21:13:16.199Z,4.40
2023-04-11T21:15:44.229Z,4.40
2023-04-11T21:18:12.475Z,4.50
2023-04-11T21:20:40.639Z,4.50
2023-04-11T21:23:08.621Z,4.50
2023-04-11T21:25:37.898Z,4.50
2023-04-11T21:28:07.228Z,4.50
2023-04-11T21:30:35.230Z,4.50
2023-04-11T21:33:03.295Z,4.40
2023-04-11T21:35:31.398Z,4.30
2023-04-11T21:37:59.503Z,4.20
2023-04-11T21:40:27.678Z,4.10
2023-04-11T21:42:55.988Z,4.00
2023-04-11T21:45:25.756Z,3.90
2023-04-11T21:47:53.937Z,3.80
2023-04-11T21:50:22.151Z,4.00
2023-04-11T21:52:50.245Z,4.00
2023-04-11T21:55:18.319Z,3.90
2023-04-11T21:57:46.355Z,3.80
2023-04-11T22:00:15.467Z,3.80
2023-04-11T22:02:45.008Z,3.80
2023-04-11T22:05:13.671Z,3.70
2023-04-11T22:07:47.785Z,3.70
2023-04-11T22:10:22.209Z,3.80
2023-04-11T22:12:50.353Z,3.80
2023-04-11T22:15:18.897Z,3.80
2023-04-11T22:17:51.210Z,3.80
2023-04-11T22:20:19.987Z,3.70
2023-04-11T22:22:48.126Z,3.70
2023-04-11T22:25:18.346Z,3.70
2023-04-11T22:27:46.485Z,3.80
2023-04-11T22:30:16.429Z,3.80
2023-04-11T22:32:44.580Z,3.70
2023-04-11T22:35:15.582Z,3.90
2023-04-11T22:37:44.812Z,4.00
2023-04-11T22:40:14.952Z,4.20
2023-04-11T22:42:43.057Z,4.20
2023-04-11T22:45:12.127Z,3.80
2023-04-11T22:47:40.256Z,3.70
2023-04-11T22:50:09.375Z,3.60
2023-04-11T22:52:41.903Z,3.50
2023-04-11T22:55:11.793Z,3.50
2023-04-11T22:57:40.908Z,3.70
2023-04-11T23:00:12.126Z,3.80
2023-04-11T23:02:40.338Z,4.40
2023-04-11T23:05:09.909Z,4.30
2023-04-11T23:07:39.512Z,3.70
2023-04-11T23:10:09.116Z,3.50
2023-04-11T23:12:37.200Z,3.40
2023-04-11T23:15:05.901Z,3.40
2023-04-11T23:17:34.087Z,3.40
2023-04-11T23:20:02.935Z,3.40
2023-04-11T23:22:31.459Z,4.00
2023-04-11T23:25:00.824Z,4.40
2023-04-11T23:27:28.767Z,4.40
2023-04-11T23:29:57.832Z,4.20
2023-04-11T23:32:26.053Z,4.30
2023-04-11T23:34:54.237Z,4.10
2023-04-11T23:37:22.196Z,4.10
2023-04-11T23:39:50.241Z,3.80
2023-04-11T23:42:19.720Z,3.60
2023-04-11T23:44:47.928Z,3.50
2023-04-11T23:47:16.022Z,3.50
2023-04-11T23:49:44.409Z,3.50
2023-04-11T23:52:12.528Z,3.80
2023-04-11T23:54:40.775Z,3.80
2023-04-11T23:57:08.789Z,3.80
2023-04-11T23:59:38.353Z,3.70
